Time;durP1;ratioP1;P1;durP2;ratioP2;P2;SDS_P1;SDS_P2;PMS_P1;PMS_P2;Temp;Humidity;BMP_temperature;BMP_pressure;BME280_temperature;BME280_humidity;BME280_pressure;Samples;Min_cycle;Max_cycle;Signal;HPM_P1;HPM_P2
2021/11/18 00:01:01;;;;;;;4.62;2.00;;;10.80;72.10;;;;;;2357267;54;20974;-70
2021/11/18 00:03:27;;;;;;;5.03;1.85;;;10.80;72.10;;;;;;2345621;54;21592;-70
2021/11/18 00:05:56;;;;;;;3.47;1.75;;;10.80;72.00;;;;;;2348010;54;20962;-70
2021/11/18 00:08:23;;;;;;;3.20;1.48;;;10.80;72.00;;;;;;2364300;54;20942;-70
2021/11/18 00:10:52;;;;;;;3.10;1.33;;;10.80;72.10;;;;;;2615011;52;20934;-69
2021/11/18 00:13:22;;;;;;;4.37;1.85;;;10.90;72.20;;;;;;2609780;52;20928;-71
2021/11/18 00:15:51;;;;;;;3.72;1.95;;;10.90;72.10;;;;;;2362907;54;21749;-69
2021/11/18 00:18:19;;;;;;;3.37;1.85;;;10.90;72.00;;;;;;2363678;54;21004;-69
2021/11/18 00:20:48;;;;;;;3.15;1.60;;;10.90;72.00;;;;;;2350442;54;21040;-71
2021/11/18 00:23:15;;;;;;;3.67;2.00;;;10.90;72.00;;;;;;2345294;54;20945;-71
2021/11/18 00:25:42;;;;;;;3.30;1.77;;;10.90;72.00;;;;;;2359963;54;21588;-70
2021/11/18 00:28:08;;;;;;;3.62;1.87;;;10.90;71.90;;;;;;2585287;52;21531;-70
2021/11/18 00:30:34;;;;;;;3.00;1.42;;;10.90;71.90;;;;;;2346464;54;20939;-71
2021/11/18 00:33:01;;;;;;;3.20;1.40;;;10.90;71.90;;;;;;2354734;54;20973;-71
2021/11/18 00:35:28;;;;;;;3.12;1.50;;;10.90;71.90;;;;;;2591990;52;20997;-70
2021/11/18 00:37:55;;;;;;;2.72;1.40;;;10.90;71.90;;;;;;2361379;53;20908;-69
2021/11/18 00:40:34;;;;;;;4.05;1.58;;;10.90;71.90;;;;;;2360052;54;20972;-70
2021/11/18 00:43:03;;;;;;;3.60;1.67;;;10.90;71.40;;;;;;2338580;54;20939;-70
2021/11/18 00:45:29;;;;;;;3.15;1.70;;;10.90;71.60;;;;;;2615470;52;20918;-70
2021/11/18 00:47:56;;;;;;;3.05;1.40;;;10.90;71.70;;;;;;2364371;54;20914;-70
2021/11/18 00:50:24;;;;;;;3.95;1.80;;;10.90;71.80;;;;;;2615208;52;20929;-70
2021/11/18 00:52:51;;;;;;;3.25;1.70;;;10.90;71.70;;;;;;2341079;54;21012;-70
2021/11/18 00:55:17;;;;;;;3.58;1.65;;;10.90;71.70;;;;;;2615968;52;20974;-69
2021/11/18 00:57:44;;;;;;;3.35;1.55;;;10.90;71.70;;;;;;2340258;54;20886;-70
2021/11/18 01:00:13;;;;;;;3.10;1.58;;;10.90;71.80;;;;;;2613486;52;25097;-70
2021/11/18 01:02:39;;;;;;;3.62;1.75;;;10.90;71.60;;;;;;2342833;54;20944;-69
2021/11/18 01:05:06;;;;;;;2.97;1.45;;;10.90;71.60;;;;;;2575477;53;21005;-70
2021/11/18 01:07:33;;;;;;;3.67;1.75;;;10.90;71.60;;;;;;2343683;53;21003;-70
2021/11/18 01:09:59;;;;;;;3.72;1.62;;;10.90;71.70;;;;;;2348495;54;20913;-71
2021/11/18 01:12:26;;;;;;;3.50;1.67;;;10.90;71.80;;;;;;2597264;52;21061;-69
2021/11/18 01:14:53;;;;;;;3.65;1.73;;;10.90;71.80;;;;;;2353679;54;21060;-70
2021/11/18 01:17:21;;;;;;;3.60;1.40;;;11.00;71.90;;;;;;2351276;54;21497;-69
2021/11/18 01:19:48;;;;;;;3.83;1.60;;;10.90;71.80;;;;;;2341527;54;20910;-70
2021/11/18 01:22:15;;;;;;;3.97;1.80;;;10.90;71.70;;;;;;2617063;52;20910;-70
2021/11/18 01:24:43;;;;;;;2.92;1.45;;;10.90;71.70;;;;;;2365994;54;20938;-70
2021/11/18 01:27:09;;;;;;;3.10;1.58;;;10.90;71.60;;;;;;2617285;52;20994;-70
2021/11/18 01:29:35;;;;;;;3.03;1.55;;;10.90;71.60;;;;;;2363948;54;20969;-70
2021/11/18 01:32:02;;;;;;;2.87;1.50;;;10.90;71.60;;;;;;2601058;52;21088;-69
2021/11/18 01:34:28;;;;;;;2.62;1.30;;;10.90;72.30;;;;;;2347560;53;20958;-69
2021/11/18 01:36:58;;;;;;;3.25;1.65;;;10.90;71.60;;;;;;2615155;52;21506;-70
2021/11/18 01:39:25;;;;;;;4.37;2.22;;;10.90;71.60;;;;;;2558847;53;20969;-70
2021/11/18 01:41:51;;;;;;;2.60;1.30;;;10.90;71.60;;;;;;2353362;54;20916;-71
2021/11/18 01:44:25;;;;;;;3.03;1.45;;;10.90;71.60;;;;;;2344300;54;20925;-70
2021/11/18 01:46:51;;;;;;;3.12;1.42;;;10.90;71.60;;;;;;2586123;52;21695;-71
2021/11/18 01:49:18;;;;;;;3.67;1.70;;;10.90;71.70;;;;;;2364655;54;20993;-70
2021/11/18 01:51:47;;;;;;;3.33;1.60;;;10.90;71.60;;;;;;2605430;52;21112;-71
2021/11/18 01:54:15;;;;;;;3.10;1.50;;;10.90;71.50;;;;;;2350856;53;21065;-70
2021/11/18 01:56:42;;;;;;;2.75;1.40;;;10.70;71.40;;;;;;2578822;53;21007;-70
2021/11/18 01:59:20;;;;;;;3.60;1.60;;;10.90;71.70;;;;;;2359464;54;21080;-70
2021/11/18 02:01:48;;;;;;;3.08;1.50;;;10.90;71.40;;;;;;2350653;54;21065;-71
2021/11/18 02:04:16;;;;;;;2.90;1.48;;;10.90;71.70;;;;;;2365235;54;20934;-70
2021/11/18 02:07:01;;;;;;;3.00;1.48;;;10.90;71.70;;;;;;2606106;52;21465;-70
2021/11/18 02:09:28;;;;;;;3.35;1.42;;;11.00;71.40;;;;;;2331819;54;20930;-70
2021/11/18 02:12:12;;;;;;;3.50;1.75;;;11.00;71.80;;;;;;2586767;52;20937;-70
2021/11/18 02:14:38;;;;;;;3.67;2.10;;;10.90;71.50;;;;;;2594291;52;20977;-71
2021/11/18 02:17:06;;;;;;;3.60;1.98;;;11.00;71.70;;;;;;2335999;54;20963;-71
2021/11/18 02:19:46;;;;;;;3.45;1.80;;;10.90;71.60;;;;;;2347598;53;21001;-71
2021/11/18 02:22:12;;;;;;;4.15;1.70;;;11.00;71.40;;;;;;2584419;52;21418;-70
2021/11/18 02:24:42;;;;;;;4.60;2.10;;;11.00;71.70;;;;;;2352989;54;20990;-69
2021/11/18 02:27:10;;;;;;;3.67;2.10;;;11.00;71.50;;;;;;2598424;52;20988;-70
2021/11/18 02:29:39;;;;;;;3.70;1.87;;;10.90;71.50;;;;;;2586424;52;21470;-70
2021/11/18 02:32:09;;;;;;;3.25;1.75;;;11.00;71.60;;;;;;2611184;52;21490;-70
2021/11/18 02:34:57;;;;;;;3.70;1.95;;;11.00;71.60;;;;;;2584147;52;20996;-71
2021/11/18 02:37:24;;;;;;;3.72;2.10;;;11.00;71.30;;;;;;2363708;54;20977;-70
2021/11/18 02:39:50;;;;;;;3.87;1.90;;;11.00;71.70;;;;;;2617590;52;20946;-70
2021/11/18 02:42:17;;;;;;;3.90;2.20;;;11.00;71.70;;;;;;2616418;52;20979;-71
2021/11/18 02:44:44;;;;;;;4.55;2.28;;;11.00;71.60;;;;;;2614322;52;21013;-71
2021/11/18 02:47:13;;;;;;;10.05;2.80;;;11.00;71.50;;;;;;2578767;53;21202;-70
2021/11/18 02:49:51;;;;;;;4.22;2.20;;;10.90;71.50;;;;;;2353452;54;20942;-69
2021/11/18 02:52:27;;;;;;;4.20;2.37;;;11.00;71.20;;;;;;2587696;52;21048;-71
2021/11/18 02:54:56;;;;;;;4.25;2.50;;;10.90;71.40;;;;;;2353949;53;20949;-70
2021/11/18 02:57:26;;;;;;;4.68;2.28;;;10.90;71.50;;;;;;2613140;52;20925;-70
2021/11/18 02:59:52;;;;;;;3.60;2.05;;;11.00;71.70;;;;;;2364482;53;20910;-69
2021/11/18 03:02:18;;;;;;;3.25;1.80;;;10.90;71.60;;;;;;2363131;54;20930;-70
2021/11/18 03:04:45;;;;;;;5.18;2.12;;;11.00;71.90;;;;;;2576698;53;20972;-69
2021/11/18 03:07:12;;;;;;;4.15;1.90;;;11.00;71.80;;;;;;2589651;52;20996;-69
2021/11/18 03:09:38;;;;;;;3.20;1.80;;;11.00;71.70;;;;;;2332831;54;21635;-70
2021/11/18 03:12:06;;;;;;;4.32;2.03;;;11.00;71.80;;;;;;2613879;52;20966;-69
2021/11/18 03:14:32;;;;;;;3.58;2.00;;;11.00;71.80;;;;;;2364799;53;21564;-70
2021/11/18 03:16:59;;;;;;;4.70;2.50;;;11.00;71.80;;;;;;2612657;52;21471;-70
2021/11/18 03:19:26;;;;;;;4.82;2.40;;;11.00;71.80;;;;;;2361832;54;20950;-70
2021/11/18 03:21:53;;;;;;;4.50;2.28;;;11.00;71.70;;;;;;2604254;52;20985;-70
2021/11/18 03:24:23;;;;;;;4.22;2.25;;;11.00;71.60;;;;;;2335168;54;20994;-71
2021/11/18 03:26:50;;;;;;;3.70;1.90;;;11.00;71.60;;;;;;2600147;52;20950;-70
2021/11/18 03:29:16;;;;;;;3.72;2.08;;;11.00;71.60;;;;;;2354838;54;20940;-69
2021/11/18 03:31:46;;;;;;;4.35;2.17;;;11.00;71.60;;;;;;2330157;54;21085;-69
2021/11/18 03:34:15;;;;;;;4.87;2.60;;;11.00;71.50;;;;;;2311682;54;21663;-70
2021/11/18 03:36:42;;;;;;;4.00;2.50;;;11.00;71.50;;;;;;2574315;53;21414;-69
2021/11/18 03:39:27;;;;;;;3.80;2.08;;;11.00;71.50;;;;;;2332963;53;20956;-70
2021/11/18 03:41:56;;;;;;;3.40;1.92;;;11.00;70.70;;;;;;2581109;53;21068;-70
2021/11/18 03:44:23;;;;;;;5.80;2.30;;;10.80;71.10;;;;;;2581951;53;21323;-70
2021/11/18 03:46:54;;;;;;;4.05;2.03;;;11.00;71.40;;;;;;2588413;52;20925;-70
2021/11/18 03:49:22;;;;;;;5.90;2.50;;;11.00;71.40;;;;;;2368761;53;20925;-71
2021/11/18 03:51:50;;;;;;;3.90;2.12;;;11.00;72.10;;;;;;2621229;52;21033;-70
2021/11/18 03:54:17;;;;;;;3.42;1.67;;;11.00;71.40;;;;;;2370746;53;20937;-70
2021/11/18 03:56:43;;;;;;;4.22;2.28;;;11.00;71.50;;;;;;2589665;52;20957;-70
2021/11/18 03:59:14;;;;;;;5.85;2.67;;;11.00;71.50;;;;;;2366975;54;20941;-71
2021/11/18 04:01:42;;;;;;;3.55;2.03;;;11.00;71.40;;;;;;2599851;52;21017;-70
2021/11/18 04:04:11;;;;;;;4.87;2.20;;;11.00;71.50;;;;;;2361106;53;20925;-70
2021/11/18 04:06:38;;;;;;;14.23;7.37;;;11.00;71.60;;;;;;2621298;52;21845;-70
2021/11/18 04:09:08;;;;;;;17.80;9.05;;;11.00;71.70;;;;;;2585859;52;20968;-71
2021/11/18 04:11:34;;;;;;;21.00;11.20;;;11.00;71.70;;;;;;2605588;52;20934;-70
2021/11/18 04:14:01;;;;;;;18.58;9.70;;;11.00;71.70;;;;;;2371451;53;21939;-70
2021/11/18 04:16:28;;;;;;;12.68;7.20;;;11.00;71.80;;;;;;2340059;53;21484;-69
2021/11/18 04:18:56;;;;;;;9.60;5.18;;;11.00;71.80;;;;;;2356981;53;20993;-70
2021/11/18 04:21:23;;;;;;;11.70;5.07;;;11.00;71.70;;;;;;2365204;54;20973;-69
2021/11/18 04:23:49;;;;;;;8.93;4.35;;;11.00;71.70;;;;;;2361068;53;21020;-70
2021/11/18 04:26:17;;;;;;;6.30;3.22;;;11.00;71.70;;;;;;2353881;53;21083;-70
2021/11/18 04:28:43;;;;;;;5.72;3.03;;;11.00;71.70;;;;;;2369038;53;21476;-70
2021/11/18 04:31:15;;;;;;;5.53;2.75;;;11.00;71.80;;;;;;2621809;52;20925;-69
2021/11/18 04:33:44;;;;;;;6.60;3.08;;;11.00;71.60;;;;;;2352702;53;20989;-70
2021/11/18 04:36:12;;;;;;;5.28;3.08;;;11.00;71.60;;;;;;2607790;52;21519;-70
2021/11/18 04:38:39;;;;;;;5.15;2.70;;;11.00;71.40;;;;;;2367182;53;21063;-71
2021/11/18 04:41:06;;;;;;;5.20;2.72;;;11.00;71.50;;;;;;2594125;52;21024;-70
2021/11/18 04:43:34;;;;;;;4.12;2.40;;;11.00;71.40;;;;;;2347911;53;21009;-70
2021/11/18 04:46:01;;;;;;;5.03;2.42;;;11.00;71.40;;;;;;2617035;52;21878;-69
2021/11/18 04:48:28;;;;;;;4.10;2.15;;;11.00;71.40;;;;;;2344621;53;20993;-70
2021/11/18 04:50:55;;;;;;;3.20;1.92;;;11.00;71.50;;;;;;2347500;53;21001;-70
2021/11/18 04:53:26;;;;;;;4.03;2.17;;;11.00;71.50;;;;;;2349809;53;20965;-70
2021/11/18 04:55:54;;;;;;;4.10;2.10;;;11.00;71.50;;;;;;2366442;53;21412;-71
2021/11/18 04:58:21;;;;;;;4.20;1.92;;;11.00;71.40;;;;;;2594242;52;21004;-70
2021/11/18 05:00:52;;;;;;;5.03;2.28;;;11.00;71.40;;;;;;2620111;52;20934;-69
2021/11/18 05:03:22;;;;;;;3.85;2.00;;;10.90;71.20;;;;;;2367797;53;20925;-71
2021/11/18 05:05:48;;;;;;;4.30;1.92;;;10.90;71.20;;;;;;2367999;53;20921;-69
2021/11/18 05:08:15;;;;;;;4.22;1.90;;;10.90;71.40;;;;;;2344549;53;20897;-71
2021/11/18 05:10:43;;;;;;;3.70;1.80;;;10.90;71.40;;;;;;2350705;53;21533;-71
2021/11/18 05:13:11;;;;;;;3.90;1.73;;;10.90;71.50;;;;;;2341112;53;20981;-69
2021/11/18 05:15:41;;;;;;;3.15;1.80;;;10.90;71.50;;;;;;2372316;53;21420;-70
2021/11/18 05:18:10;;;;;;;3.80;1.50;;;10.90;71.50;;;;;;2590111;52;20996;-70
2021/11/18 05:20:36;;;;;;;3.72;1.83;;;10.70;71.30;;;;;;2365477;53;20977;-70
2021/11/18 05:23:02;;;;;;;3.87;1.73;;;10.90;71.70;;;;;;2348470;53;21385;-70
2021/11/18 05:25:29;;;;;;;4.68;2.33;;;10.90;71.70;;;;;;2361167;53;21780;-70
2021/11/18 05:27:56;;;;;;;4.50;2.28;;;10.90;71.80;;;;;;2343199;53;20964;-70
2021/11/18 05:30:26;;;;;;;3.97;2.25;;;10.90;71.80;;;;;;2345705;53;20929;-69
2021/11/18 05:32:54;;;;;;;3.72;2.03;;;10.90;71.80;;;;;;2348500;53;21026;-70
2021/11/18 05:35:21;;;;;;;4.03;2.00;;;10.90;71.80;;;;;;2350489;53;21049;-71
2021/11/18 05:37:49;;;;;;;3.33;1.83;;;10.90;71.80;;;;;;2352968;53;21077;-71
2021/11/18 05:40:15;;;;;;;3.53;2.08;;;10.90;71.70;;;;;;2344821;53;21805;-69
2021/11/18 05:42:41;;;;;;;4.07;2.20;;;10.90;71.70;;;;;;2349227;53;20945;-71
2021/11/18 05:45:11;;;;;;;4.78;2.45;;;10.90;71.70;;;;;;2328816;54;21532;-69
2021/11/18 05:47:37;;;;;;;4.78;2.28;;;10.90;71.80;;;;;;2347111;53;20949;-69
2021/11/18 05:50:05;;;;;;;4.30;2.17;;;10.90;71.90;;;;;;2620407;52;20996;-70
2021/11/18 05:52:34;;;;;;;4.25;2.15;;;10.90;71.90;;;;;;2369183;53;21689;-70
2021/11/18 05:55:00;;;;;;;4.57;2.42;;;10.90;71.90;;;;;;2369315;54;20922;-71
2021/11/18 05:57:27;;;;;;;4.45;2.28;;;10.90;71.90;;;;;;2368995;53;20898;-70
2021/11/18 05:59:56;;;;;;;4.78;2.50;;;10.90;71.90;;;;;;2358733;53;21360;-69
2021/11/18 06:02:22;;;;;;;4.62;2.50;;;10.90;71.80;;;;;;2358413;53;20984;-70
2021/11/18 06:04:50;;;;;;;3.40;1.87;;;10.90;71.80;;;;;;2369197;54;20988;-70
2021/11/18 06:07:17;;;;;;;4.75;2.28;;;10.90;71.80;;;;;;2368145;53;20913;-70
2021/11/18 06:09:46;;;;;;;3.97;2.00;;;10.90;71.80;;;;;;2606750;52;21021;-71
2021/11/18 06:12:12;;;;;;;4.30;1.85;;;10.90;71.80;;;;;;2330160;54;21413;-70
2021/11/18 06:14:38;;;;;;;3.55;1.87;;;10.90;71.80;;;;;;2346963;53;21406;-71
2021/11/18 06:17:05;;;;;;;3.28;1.62;;;10.90;71.80;;;;;;2368695;53;21025;-70
2021/11/18 06:19:34;;;;;;;3.33;1.52;;;10.90;71.80;;;;;;2340254;53;21102;-69
2021/11/18 06:22:02;;;;;;;4.00;1.35;;;10.90;71.80;;;;;;2352257;53;20921;-70
2021/11/18 06:24:29;;;;;;;3.00;1.25;;;10.90;71.80;;;;;;2610386;52;20948;-70
2021/11/18 06:26:58;;;;;;;3.28;1.80;;;10.90;71.90;;;;;;2350646;53;21004;-71
2021/11/18 06:29:29;;;;;;;7.47;3.25;;;10.90;71.80;;;;;;2595222;52;20943;-70
2021/11/18 06:31:57;;;;;;;5.68;3.28;;;10.90;71.90;;;;;;2589457;52;21426;-71
2021/11/18 06:34:24;;;;;;;6.22;3.53;;;10.90;71.90;;;;;;2579237;52;21566;-70
2021/11/18 06:36:53;;;;;;;7.45;3.62;;;10.90;71.90;;;;;;2364084;53;20986;-70
2021/11/18 06:39:21;;;;;;;9.02;4.28;;;10.90;71.90;;;;;;2345522;53;20937;-70
2021/11/18 06:41:48;;;;;;;6.53;3.58;;;10.90;71.90;;;;;;2587993;52;20989;-70
2021/11/18 06:44:15;;;;;;;4.68;2.55;;;10.90;71.90;;;;;;2355510;53;20935;-71
2021/11/18 06:46:41;;;;;;;3.50;2.10;;;10.90;71.90;;;;;;2349328;53;20927;-70
2021/11/18 06:49:09;;;;;;;6.40;3.28;;;10.90;72.00;;;;;;2365502;53;21518;-70
2021/11/18 06:51:40;;;;;;;7.10;3.30;;;10.90;72.00;;;;;;2608658;52;20942;-70
2021/11/18 06:54:06;;;;;;;5.60;2.25;;;10.90;72.00;;;;;;2346865;53;21107;-70
2021/11/18 06:56:33;;;;;;;4.12;2.03;;;10.90;71.90;;;;;;2350942;53;20909;-69
2021/11/18 06:59:00;;;;;;;4.37;2.20;;;10.90;71.90;;;;;;2621207;52;20977;-70
2021/11/18 07:01:27;;;;;;;4.20;2.30;;;10.90;72.60;;;;;;2369629;54;20949;-69
2021/11/18 07:03:53;;;;;;;6.05;2.70;;;10.90;72.00;;;;;;2621601;52;21025;-69
2021/11/18 07:06:20;;;;;;;4.47;2.72;;;10.90;71.90;;;;;;2369166;54;20889;-70
2021/11/18 07:08:47;;;;;;;5.75;2.70;;;10.90;71.90;;;;;;2620503;52;22079;-70
2021/11/18 07:11:14;;;;;;;4.85;2.28;;;10.90;71.90;;;;;;2368723;53;21734;-71
2021/11/18 07:13:41;;;;;;;5.28;2.20;;;10.90;71.90;;;;;;2339988;53;20968;-69
2021/11/18 07:16:09;;;;;;;3.90;1.92;;;10.90;72.00;;;;;;2352901;53;20917;-70
2021/11/18 07:18:39;;;;;;;4.70;2.37;;;10.90;72.10;;;;;;2590984;52;21386;-70
2021/11/18 07:21:05;;;;;;;5.00;2.40;;;10.90;72.20;;;;;;2345379;53;21012;-69
2021/11/18 07:23:32;;;;;;;5.85;2.80;;;10.90;72.20;;;;;;2612506;52;21723;-71
2021/11/18 07:25:59;;;;;;;4.25;2.45;;;10.90;72.20;;;;;;2340519;53;20940;-70
2021/11/18 07:28:28;;;;;;;6.40;3.30;;;10.90;72.30;;;;;;2573713;53;21007;-70
2021/11/18 07:30:54;;;;;;;4.62;2.33;;;10.90;72.40;;;;;;2588577;52;20973;-69
2021/11/18 07:33:21;;;;;;;4.70;2.83;;;11.00;72.50;;;;;;2309666;53;21032;-70
2021/11/18 07:35:47;;;;;;;5.40;2.87;;;11.00;72.40;;;;;;2571390;53;20968;-70
2021/11/18 07:38:16;;;;;;;5.40;2.62;;;10.90;72.30;;;;;;2352439;54;20917;-71
2021/11/18 07:40:44;;;;;;;4.25;2.42;;;11.00;72.50;;;;;;2621763;52;20985;-70
2021/11/18 07:43:12;;;;;;;4.22;2.58;;;11.00;72.60;;;;;;2621243;52;21645;-71
2021/11/18 07:45:38;;;;;;;4.68;2.72;;;11.00;72.60;;;;;;2350270;53;21044;-71
2021/11/18 07:48:07;;;;;;;5.12;2.80;;;11.00;72.60;;;;;;2356106;53;20953;-70
2021/11/18 07:50:33;;;;;;;4.87;2.72;;;11.00;72.50;;;;;;2603263;52;20926;-68
2021/11/18 07:53:00;;;;;;;4.90;3.17;;;11.10;72.50;;;;;;2620892;52;20901;-69
2021/11/18 07:55:28;;;;;;;4.68;2.83;;;11.10;72.50;;;;;;2369118;53;20917;-71
2021/11/18 07:57:56;;;;;;;5.00;2.40;;;11.10;72.40;;;;;;2349387;53;20973;-71
2021/11/18 08:00:23;;;;;;;5.43;2.87;;;11.10;72.40;;;;;;2363688;53;20988;-71
2021/11/18 08:02:51;;;;;;;4.70;3.03;;;11.10;72.50;;;;;;2364096;53;21046;-69
2021/11/18 08:05:18;;;;;;;5.20;3.17;;;11.10;72.40;;;;;;2350640;53;20906;-70
2021/11/18 08:07:44;;;;;;;4.28;2.62;;;11.10;72.40;;;;;;2621110;52;21621;-71
2021/11/18 08:10:12;;;;;;;4.70;2.83;;;11.10;72.40;;;;;;2619939;52;20901;-70
2021/11/18 08:12:38;;;;;;;4.53;2.60;;;11.10;72.40;;;;;;2342766;53;21048;-69
2021/11/18 08:15:08;;;;;;;6.18;2.55;;;11.10;72.50;;;;;;2595478;52;21545;-69
2021/11/18 08:17:36;;;;;;;4.50;2.67;;;11.20;72.70;;;;;;2325268;54;20961;-71
2021/11/18 08:20:04;;;;;;;4.87;2.60;;;11.20;72.90;;;;;;2360189;53;20921;-71
2021/11/18 08:22:31;;;;;;;5.68;2.80;;;11.20;72.90;;;;;;2363412;53;21454;-71
2021/11/18 08:24:57;;;;;;;4.03;2.10;;;11.20;72.90;;;;;;2352857;53;21024;-71
2021/11/18 08:27:23;;;;;;;4.87;2.97;;;11.20;72.90;;;;;;2350207;53;21013;-71
2021/11/18 08:29:51;;;;;;;5.60;2.97;;;11.30;73.00;;;;;;2617303;52;21461;-70
2021/11/18 08:32:18;;;;;;;11.35;3.20;;;11.30;72.90;;;;;;2372809;54;20969;-70
2021/11/18 08:34:45;;;;;;;5.60;2.50;;;11.30;72.90;;;;;;2582176;52;20992;-70
2021/11/18 08:37:12;;;;;;;4.53;2.53;;;11.40;72.90;;;;;;2596788;52;20926;-70
2021/11/18 08:39:39;;;;;;;4.62;2.72;;;11.40;72.90;;;;;;2368145;53;20937;-70
2021/11/18 08:42:07;;;;;;;4.12;2.60;;;11.40;73.60;;;;;;2369118;53;21041;-70
2021/11/18 08:44:35;;;;;;;5.53;2.78;;;11.40;72.80;;;;;;2371198;53;21995;-70
2021/11/18 08:47:02;;;;;;;4.30;2.58;;;11.40;72.70;;;;;;2356543;53;21402;-71
2021/11/18 08:49:29;;;;;;;5.10;2.67;;;11.50;72.70;;;;;;2334491;53;20992;-70
2021/11/18 08:51:56;;;;;;;4.95;3.17;;;11.40;72.60;;;;;;2352360;53;21008;-70
2021/11/18 08:54:25;;;;;;;4.32;2.60;;;11.50;72.70;;;;;;2617354;52;20965;-70
2021/11/18 08:56:52;;;;;;;4.97;2.45;;;11.50;72.70;;;;;;2370723;54;21584;-70
2021/11/18 08:59:20;;;;;;;4.35;2.40;;;11.50;72.80;;;;;;2370744;53;20901;-70
2021/11/18 09:01:51;;;;;;;5.00;2.70;;;11.50;72.90;;;;;;2368958;54;20897;-70
2021/11/18 09:04:20;;;;;;;4.57;2.70;;;11.60;73.00;;;;;;2371925;54;21025;-70
2021/11/18 09:06:46;;;;;;;4.55;2.60;;;11.60;72.90;;;;;;2588384;52;20977;-70
2021/11/18 09:12:46;;;;;;;4.40;2.45;;;11.80;72.70;;;;;;2616090;52;21049;-70
2021/11/18 09:15:13;;;;;;;4.87;2.60;;;11.70;73.10;;;;;;2346288;53;20921;-69
2021/11/18 09:17:39;;;;;;;5.30;3.22;;;11.70;73.10;;;;;;2621317;52;21000;-70
2021/11/18 09:20:07;;;;;;;5.47;2.92;;;11.80;73.20;;;;;;2355174;53;20962;-70
2021/11/18 09:22:34;;;;;;;5.35;2.87;;;11.80;73.10;;;;;;2354367;53;21098;-70
2021/11/18 09:25:01;;;;;;;4.78;2.92;;;11.80;73.10;;;;;;2346197;53;21005;-70
2021/11/18 09:27:33;;;;;;;5.53;3.15;;;11.80;73.10;;;;;;2621548;52;20917;-70
2021/11/18 09:30:02;;;;;;;4.82;3.08;;;11.90;73.10;;;;;;2582427;52;21541;-70
2021/11/18 09:32:30;;;;;;;5.07;3.12;;;11.90;73.10;;;;;;2358270;53;20953;-70
2021/11/18 09:34:58;;;;;;;5.15;2.80;;;11.90;73.10;;;;;;2372844;53;21739;-70
2021/11/18 09:37:24;;;;;;;5.37;2.97;;;12.00;73.30;;;;;;2612658;52;20994;-70
2021/11/18 09:39:51;;;;;;;6.07;3.03;;;12.00;73.30;;;;;;2597962;52;21467;-70
2021/11/18 09:42:22;;;;;;;6.80;2.85;;;12.10;73.40;;;;;;2619114;52;21508;-71
2021/11/18 09:45:17;;;;;;;4.28;2.90;;;12.10;73.50;;;;;;2369084;53;20965;-70
2021/11/18 09:50:56;;;;;;;4.62;2.95;;;12.20;73.10;;;;;;2604567;52;21701;-70
2021/11/18 09:55:18;;;;;;;5.40;2.65;;;12.30;72.90;;;;;;2373946;53;20948;-70
2021/11/18 10:00:32;;;;;;;4.55;2.78;;;12.50;73.70;;;;;;2622483;52;20925;-71
2021/11/18 10:03:08;;;;;;;5.22;3.08;;;12.80;74.10;;;;;;2374643;53;21424;-70
2021/11/18 10:05:56;;;;;;;5.95;3.22;;;12.90;75.30;;;;;;2592668;52;20976;-71
2021/11/18 10:08:29;;;;;;;5.55;3.42;;;13.00;74.50;;;;;;2347076;54;20953;-70
2021/11/18 10:11:55;;;;;;;5.00;3.40;;;13.10;74.90;;;;;;2593905;52;20945;-71
2021/11/18 10:14:55;;;;;;;6.10;3.33;;;13.20;74.00;;;;;;2370052;53;20909;-71
2021/11/18 10:17:34;;;;;;;6.15;3.40;;;13.20;73.20;;;;;;2359240;53;20925;-70
2021/11/18 10:20:07;;;;;;;5.55;3.25;;;13.20;73.50;;;;;;2354428;53;21009;-70
2021/11/18 10:22:37;;;;;;;4.90;3.37;;;13.30;73.10;;;;;;2346408;53;21037;-71
2021/11/18 10:25:06;;;;;;;5.72;3.55;;;13.30;73.30;;;;;;2595403;52;20972;-71
2021/11/18 10:27:51;;;;;;;5.05;3.42;;;13.30;73.30;;;;;;2357613;53;20953;-71
2021/11/18 10:31:58;;;;;;;5.75;3.55;;;13.30;72.90;;;;;;2350187;53;21470;-71
2021/11/18 10:34:50;;;;;;;5.75;3.17;;;13.30;71.90;;;;;;2623219;52;20965;-71
2021/11/18 10:37:41;;;;;;;4.93;2.92;;;13.40;73.20;;;;;;2372054;53;21983;-70
2021/11/18 10:40:29;;;;;;;5.68;3.37;;;13.40;73.30;;;;;;2601827;52;20913;-71
2021/11/18 10:43:17;;;;;;;6.00;3.28;;;13.50;73.40;;;;;;2370846;54;21592;-71
2021/11/18 10:45:52;;;;;;;6.20;3.80;;;13.50;73.40;;;;;;2371283;54;20941;-71
2021/11/18 10:48:33;;;;;;;6.05;4.03;;;13.50;74.20;;;;;;2595398;52;20945;-71
2021/11/18 10:51:08;;;;;;;6.15;3.58;;;13.60;73.80;;;;;;2364839;53;20885;-70
2021/11/18 10:54:03;;;;;;;8.77;4.28;;;13.70;74.50;;;;;;2622498;52;21440;-71
2021/11/18 10:57:32;;;;;;;5.47;2.90;;;13.80;74.50;;;;;;2369828;53;20933;-71
2021/11/18 11:00:21;;;;;;;4.47;2.08;;;14.00;73.60;;;;;;2370775;53;21464;-71
2021/11/18 11:02:50;;;;;;;4.03;1.58;;;14.10;74.40;;;;;;2370904;54;20901;-70
2021/11/18 11:07:53;;;;;;;2.72;1.48;;;14.20;75.30;;;;;;2367478;53;21793;-71
2021/11/18 11:10:23;;;;;;;2.47;1.00;;;14.40;73.30;;;;;;2622389;52;20973;-70
2021/11/18 11:13:47;;;;;;;2.33;1.10;;;14.50;74.30;;;;;;2380055;53;20962;-71
2021/11/18 11:19:13;;;;;;;1.80;0.80;;;14.50;72.00;;;;;;2346761;53;21466;-71
2021/11/18 11:22:06;;;;;;;2.90;1.30;;;14.60;72.00;;;;;;2623042;52;20925;-71
2021/11/18 11:24:56;;;;;;;3.62;2.20;;;14.60;71.80;;;;;;2370839;54;20946;-72
2021/11/18 11:29:35;;;;;;;6.87;3.80;;;14.60;71.90;;;;;;2357972;53;21005;-71
2021/11/18 11:34:08;;;;;;;3.78;2.22;;;14.60;71.10;;;;;;2589654;52;21402;-71
2021/11/18 11:36:37;;;;;;;4.12;2.55;;;14.60;71.00;;;;;;2370416;53;20984;-71
2021/11/18 11:39:29;;;;;;;2.83;1.52;;;14.60;72.40;;;;;;2606761;52;20980;-71
2021/11/18 11:42:37;;;;;;;2.90;1.52;;;14.60;71.80;;;;;;2360864;53;20905;-71
2021/11/18 11:50:05;;;;;;;2.92;1.35;;;14.60;71.50;;;;;;2618128;52;20949;-72
2021/11/18 11:53:09;;;;;;;2.12;1.00;;;14.60;71.30;;;;;;2620763;52;21001;-72
2021/11/18 11:57:19;;;;;;;2.33;1.15;;;14.60;71.10;;;;;;2369577;53;21013;-71
2021/11/18 12:00:00;;;;;;;2.20;1.00;;;14.60;70.60;;;;;;2347032;54;21001;-71
2021/11/18 12:02:56;;;;;;;2.40;1.20;;;14.60;72.60;;;;;;2371140;53;21044;-71
2021/11/18 12:06:59;;;;;;;2.50;1.30;;;14.60;72.40;;;;;;2355751;53;21422;-72
2021/11/18 12:11:00;;;;;;;2.90;1.23;;;14.60;70.80;;;;;;2613209;52;20966;-71
2021/11/18 12:13:53;;;;;;;2.25;1.00;;;14.60;72.60;;;;;;2621842;52;21391;-71
2021/11/18 12:16:32;;;;;;;2.85;1.23;;;14.70;71.90;;;;;;2345036;54;21049;-71
2021/11/18 12:19:32;;;;;;;2.42;1.10;;;14.70;72.70;;;;;;2341240;53;21004;-71
2021/11/18 12:21:59;;;;;;;3.37;1.27;;;14.70;72.50;;;;;;2611335;52;20921;-71
2021/11/18 12:24:25;;;;;;;2.28;1.30;;;14.80;73.90;;;;;;2350028;53;21025;-70
2021/11/18 12:26:55;;;;;;;3.10;1.30;;;14.90;74.10;;;;;;2350806;53;20980;-71
2021/11/18 12:29:45;;;;;;;3.05;1.40;;;14.90;73.80;;;;;;2570895;52;20957;-71
2021/11/18 12:32:33;;;;;;;2.47;1.20;;;15.00;73.40;;;;;;2355293;53;20909;-71
2021/11/18 12:35:10;;;;;;;2.50;1.20;;;15.10;72.20;;;;;;2356952;53;20968;-71
2021/11/18 12:39:33;;;;;;;2.50;1.30;;;15.30;73.10;;;;;;2347611;53;21032;-71
2021/11/18 12:42:39;;;;;;;2.67;1.12;;;15.20;71.00;;;;;;2370708;53;21418;-71
2021/11/18 12:48:04;;;;;;;2.62;1.30;;;15.30;72.20;;;;;;2369249;53;20894;-71
2021/11/18 12:50:49;;;;;;;2.58;1.20;;;15.40;71.70;;;;;;2371523;53;20969;-71
2021/11/18 12:53:38;;;;;;;2.55;1.20;;;15.40;71.40;;;;;;2622505;52;20902;-71
2021/11/18 12:56:36;;;;;;;2.70;1.30;;;15.40;71.70;;;;;;2622306;52;21646;-70
2021/11/18 12:59:08;;;;;;;2.78;1.37;;;15.50;72.80;;;;;;2370648;54;20921;-71
2021/11/18 13:01:47;;;;;;;2.33;1.20;;;15.60;73.30;;;;;;2346655;53;20909;-71
2021/11/18 13:04:34;;;;;;;2.58;1.35;;;15.70;73.10;;;;;;2369685;54;20976;-72
2021/11/18 13:07:00;;;;;;;3.15;1.48;;;15.70;71.70;;;;;;2345217;53;21012;-71
2021/11/18 13:10:52;;;;;;;3.90;2.00;;;15.80;73.30;;;;;;2613451;52;20889;-71
2021/11/18 13:13:40;;;;;;;2.50;1.37;;;15.90;71.50;;;;;;2370189;54;21485;-71
2021/11/18 13:17:04;;;;;;;2.60;1.52;;;16.00;72.80;;;;;;2370617;54;20937;-71
2021/11/18 13:20:04;;;;;;;3.72;1.70;;;16.20;73.50;;;;;;2344652;54;21076;-71
2021/11/18 13:22:47;;;;;;;2.90;1.80;;;16.30;72.60;;;;;;2335524;54;21458;-71
2021/11/18 13:25:25;;;;;;;3.10;1.67;;;16.40;73.50;;;;;;2335929;54;20953;-71
2021/11/18 13:32:22;;;;;;;2.22;1.15;;;16.60;71.30;;;;;;2580722;53;21437;-71
2021/11/18 13:35:08;;;;;;;3.15;1.40;;;16.60;71.20;;;;;;2309813;54;20980;-72
2021/11/18 13:37:42;;;;;;;2.42;1.20;;;16.50;70.30;;;;;;2311646;54;21112;-71
2021/11/18 13:40:22;;;;;;;2.50;1.27;;;16.50;69.30;;;;;;2321161;54;20922;-71
2021/11/18 13:43:55;;;;;;;2.75;1.50;;;16.40;68.50;;;;;;2599124;52;20963;-71
2021/11/18 13:46:32;;;;;;;4.18;1.80;;;16.20;67.80;;;;;;2341212;54;20911;-72
2021/11/18 13:49:18;;;;;;;2.78;1.48;;;16.20;70.10;;;;;;2334427;53;21447;-70
2021/11/18 13:52:11;;;;;;;3.97;1.77;;;16.10;70.00;;;;;;2342191;53;20998;-70